Gem, West Virginia
Current Conditions -  °F | °C
As of 1:15 AM on Wednesday 22 Oct 2014 (Local Time) from KW22 Reporting Station
Unknown Precip Unknown Precip  
Wind Chill: 39°   Ceiling: 400
Heat Index: 43°   Visibility: 2.5mi
Dew Point: 43°   Wind: 6mph
Humidity: 100%   Direction: 320°NW
Pressure: 30.04"   Gusts: NA
Location:  38.8444°N, 80.6476°W
Report Text: KW22 220515Z AUTO 32005KT 2 1/2SM -UP OVC004 06/06 A3004 RMK AO2
Loading
Personal Weather Stations






























Interactive Weather Map
Tropical Storm Tracking
New forecast layout! Learn more

10-Day Weather Forecast

Advertisements
Track Severe Weather on mobile